createdAt,value
2019-04-14T00:04:36.326Z,98756.49
2019-04-14T00:09:41.551Z,98752.16
2019-04-14T00:14:47.004Z,98749.86
2019-04-14T00:19:52.998Z,98748.61
2019-04-14T00:24:59.638Z,98745.59
2019-04-14T00:30:07.588Z,98743.50
2019-04-14T00:35:23.124Z,98743.25
2019-04-14T00:40:34.671Z,98742.73
2019-04-14T00:45:52.690Z,98743.83
2019-04-14T00:50:56.038Z,98738.76
2019-04-14T00:56:01.973Z,98741.41
2019-04-14T01:01:07.492Z,98739.42
2019-04-14T01:06:12.659Z,98738.33
2019-04-14T01:11:18.187Z,98730.35
2019-04-14T01:16:25.015Z,98726.08
2019-04-14T01:21:31.339Z,98738.95
2019-04-14T01:26:37.796Z,98739.98
2019-04-14T01:31:44.671Z,98745.03
2019-04-14T01:36:49.991Z,98745.96
2019-04-14T01:41:56.319Z,98740.41
2019-04-14T01:47:01.647Z,98736.91
2019-04-14T01:52:18.831Z,98742.66
2019-04-14T01:57:41.396Z,98731.61
2019-04-14T02:02:47.134Z,98738.96
2019-04-14T02:07:53.760Z,98741.42
2019-04-14T02:12:58.990Z,98744.19
2019-04-14T02:18:05.591Z,98749.26
2019-04-14T02:23:12.441Z,98751.18
2019-04-14T02:28:17.876Z,98747.73
2019-04-14T02:39:10.352Z,98752.83
2019-04-14T02:44:15.907Z,98754.20
2019-04-14T02:49:16.881Z,98763.86
2019-04-14T02:54:32.669Z,98764.34
2019-04-14T02:59:27.045Z,98759.59
2019-04-14T03:04:41.360Z,98754.06
2019-04-14T03:09:41.806Z,98761.88
2019-04-14T03:14:50.320Z,98759.73
2019-04-14T03:25:15.202Z,98761.22
2019-04-14T03:31:12.230Z,98745.81
2019-04-14T03:41:00.232Z,98741.28
2019-04-14T03:46:09.671Z,98747.73
2019-04-14T03:51:21.313Z,98745.73
2019-04-14T03:56:27.047Z,98754.09
2019-04-14T04:01:32.349Z,98754.45
2019-04-14T04:06:38.287Z,98754.77
2019-04-14T04:11:43.518Z,98743.87
2019-04-14T04:17:05.811Z,98751.54
2019-04-14T04:22:28.911Z,98748.64
2019-04-14T04:27:52.898Z,98753.70
2019-04-14T04:33:15.516Z,98762.95
2019-04-14T04:38:27.717Z,98766.06
2019-04-14T04:43:34.146Z,98767.20
2019-04-14T04:48:39.362Z,98779.69
2019-04-14T04:53:44.479Z,98781.70
2019-04-14T04:58:50.566Z,98780.34
2019-04-14T05:03:55.739Z,98784.41
2019-04-14T05:09:07.924Z,98784.31
2019-04-14T05:14:19.476Z,98790.37
2019-04-14T05:19:30.298Z,98783.72
2019-04-14T05:24:33.247Z,98791.29
2019-04-14T05:29:38.669Z,98794.94
2019-04-14T05:34:43.868Z,98792.13
2019-04-14T05:39:50.413Z,98798.30
2019-04-14T05:44:57.826Z,98797.34
2019-04-14T05:50:03.219Z,98793.44
2019-04-14T05:55:08.863Z,98801.33
2019-04-14T06:00:17.371Z,98805.72
2019-04-14T06:05:23.255Z,98815.38
2019-04-14T06:10:28.656Z,98818.14
2019-04-14T06:15:34.558Z,98811.53
2019-04-14T06:20:41.024Z,98821.56
2019-04-14T06:25:46.222Z,98826.20
2019-04-14T06:31:09.143Z,98831.99
2019-04-14T06:36:29.737Z,98828.41
2019-04-14T06:41:37.169Z,98832.86
2019-04-14T06:46:42.950Z,98823.34
2019-04-14T06:51:48.186Z,98825.59
2019-04-14T06:56:53.693Z,98827.39
2019-04-14T07:01:59.274Z,98821.43
2019-04-14T07:07:05.779Z,98819.63
2019-04-14T07:12:11.452Z,98826.16
2019-04-14T07:17:16.738Z,98822.94
2019-04-14T07:22:22.973Z,98832.39
2019-04-14T07:27:28.893Z,98835.36
2019-04-14T07:32:50.545Z,98839.19
2019-04-14T07:38:18.016Z,98840.77
2019-04-14T07:43:35.283Z,98845.70
2019-04-14T07:49:05.706Z,98844.18
2019-04-14T07:54:41.307Z,98834.19
2019-04-14T08:00:12.742Z,98839.24
2019-04-14T08:05:21.147Z,98829.50
2019-04-14T08:10:26.736Z,98834.86
2019-04-14T08:15:32.801Z,98837.06
2019-04-14T08:20:38.661Z,98841.57
2019-04-14T08:25:44.244Z,98840.55
2019-04-14T08:30:49.393Z,98840.99
2019-04-14T08:35:54.473Z,98840.73
2019-04-14T08:40:59.650Z,98847.28
2019-04-14T08:46:27.549Z,98858.05
2019-04-14T08:51:51.610Z,98859.77
2019-04-14T08:57:14.924Z,98856.89
2019-04-14T09:02:27.222Z,98850.75
2019-04-14T09:07:36.644Z,98845.19
2019-04-14T09:12:49.099Z,98847.95
2019-04-14T09:17:54.983Z,98847.80
2019-04-14T09:23:00.123Z,98849.20
2019-04-14T09:28:05.338Z,98850.73
2019-04-14T09:33:11.197Z,98861.50
2019-04-14T09:38:16.698Z,98865.25
2019-04-14T09:43:21.770Z,98857.20
2019-04-14T09:48:27.044Z,98867.62
2019-04-14T09:53:32.841Z,98868.08
2019-04-14T09:58:37.845Z,98868.88
2019-04-14T10:03:43.252Z,98859.56
2019-04-14T10:08:48.391Z,98869.61
2019-04-14T10:13:54.728Z,98867.56
2019-04-14T10:19:00.278Z,98871.37
2019-04-14T10:24:06.495Z,98877.75
2019-04-14T10:29:11.566Z,98875.90
2019-04-14T10:34:16.979Z,98883.34
2019-04-14T10:39:22.427Z,98874.00
2019-04-14T10:44:27.554Z,98874.89
2019-04-14T10:49:33.089Z,98872.80
2019-04-14T10:54:38.760Z,98871.30
2019-04-14T10:59:43.833Z,98872.17
2019-04-14T11:04:49.058Z,98873.13
2019-04-14T11:09:54.526Z,98875.70
2019-04-14T11:14:59.598Z,98873.00
2019-04-14T11:20:05.202Z,98872.90
2019-04-14T11:25:11.629Z,98866.72
2019-04-14T11:30:20.590Z,98868.34
2019-04-14T11:35:47.535Z,98871.09
2019-04-14T11:41:00.064Z,98869.97
2019-04-14T11:46:05.402Z,98881.14
2019-04-14T11:51:12.028Z,98881.35
2019-04-14T11:56:17.832Z,98886.30
2019-04-14T12:01:37.899Z,98883.88
2019-04-14T12:07:14.978Z,98887.80
2019-04-14T12:12:20.204Z,98886.05
2019-04-14T12:17:25.308Z,98893.26
2019-04-14T12:22:30.843Z,98896.01
2019-04-14T12:27:35.914Z,98903.00
2019-04-14T12:32:42.115Z,98904.27
2019-04-14T12:37:47.260Z,98902.08
2019-04-14T12:43:07.130Z,98902.36
2019-04-14T12:48:37.054Z,98902.23
2019-04-14T12:53:42.197Z,98904.21
2019-04-14T12:59:12.719Z,98905.88
2019-04-14T13:04:18.440Z,98909.48
2019-04-14T13:09:23.587Z,98907.62
2019-04-14T13:14:28.744Z,98904.23
2019-04-14T13:19:34.377Z,98899.09
2019-04-14T13:24:39.616Z,98901.86
2019-04-14T13:29:45.210Z,98910.70
2019-04-14T13:34:50.631Z,98915.27
2019-04-14T13:39:55.641Z,98913.02
2019-04-14T13:45:00.764Z,98910.59
2019-04-14T13:50:06.788Z,98922.28
2019-04-14T13:55:12.376Z,98921.00
2019-04-14T14:00:18.960Z,98922.06
2019-04-14T14:05:24.064Z,98909.57
2019-04-14T14:10:30.679Z,98923.24
2019-04-14T14:16:04.158Z,98928.80
2019-04-14T14:21:27.689Z,98932.50
2019-04-14T14:26:34.222Z,98926.78
2019-04-14T14:31:39.409Z,98929.25
2019-04-14T14:36:44.558Z,98925.35
2019-04-14T14:41:49.714Z,98922.09
2019-04-14T14:47:02.427Z,98923.24
2019-04-14T14:52:09.708Z,98927.77
2019-04-14T14:57:15.322Z,98930.08
2019-04-14T15:02:21.157Z,98936.36
2019-04-14T15:07:26.429Z,98927.00
2019-04-14T15:12:31.835Z,98932.55
2019-04-14T15:17:37.103Z,98935.56
2019-04-14T15:22:42.296Z,98935.69
2019-04-14T15:27:47.814Z,98940.64
2019-04-14T15:32:52.913Z,98940.95
2019-04-14T15:37:58.155Z,98932.98
2019-04-14T15:43:03.463Z,98930.36
2019-04-14T15:48:09.330Z,98936.23
2019-04-14T15:53:14.909Z,98937.58
2019-04-14T15:58:47.933Z,98939.30
2019-04-14T16:03:58.071Z,98946.23
2019-04-14T16:09:13.440Z,98937.67
2019-04-14T16:14:38.438Z,98944.49
2019-04-14T16:19:50.120Z,98946.36
2019-04-14T16:24:55.219Z,98949.22
2019-04-14T16:30:20.088Z,98952.34
2019-04-14T16:35:28.101Z,98951.20
2019-04-14T16:40:34.447Z,98958.45
2019-04-14T16:45:40.096Z,98959.72
2019-04-14T16:50:45.609Z,98966.91
2019-04-14T16:56:22.116Z,98965.63
2019-04-14T17:01:32.236Z,98973.33
2019-04-14T17:06:37.490Z,98978.92
2019-04-14T17:11:43.983Z,98980.27
2019-04-14T17:17:08.983Z,98989.34
2019-04-14T17:22:35.879Z,98986.73
2019-04-14T17:27:57.577Z,98990.78
2019-04-14T17:33:20.889Z,98992.64
2019-04-14T17:38:38.650Z,98996.41
2019-04-14T17:44:02.364Z,98997.88
2019-04-14T17:49:38.931Z,98999.55
2019-04-14T17:54:54.336Z,99014.78
2019-04-14T18:00:11.473Z,99014.30
2019-04-14T18:05:37.279Z,99016.64
2019-04-14T18:11:07.761Z,99030.09
2019-04-14T18:16:22.993Z,99032.70
2019-04-14T18:21:28.443Z,99044.45
2019-04-14T18:26:33.954Z,99039.38
2019-04-14T18:31:57.015Z,99045.93
2019-04-14T18:37:09.558Z,99055.92
2019-04-14T18:42:28.803Z,99058.30
2019-04-14T18:47:46.401Z,99052.71
2019-04-14T18:53:10.497Z,99065.13
2019-04-14T18:58:33.388Z,99068.11
2019-04-14T19:03:39.031Z,99073.94
2019-04-14T19:08:44.636Z,99072.31
2019-04-14T19:13:52.220Z,99077.59
2019-04-14T19:18:59.120Z,99079.93
2019-04-14T19:24:04.693Z,99081.56
2019-04-14T19:29:10.969Z,99094.37
2019-04-14T19:34:16.426Z,99087.67
2019-04-14T19:39:22.478Z,99089.98
2019-04-14T19:44:28.028Z,99092.47
2019-04-14T19:49:33.215Z,99098.34
2019-04-14T19:54:38.486Z,99103.31
2019-04-14T19:59:43.590Z,99109.70
2019-04-14T20:04:48.747Z,99112.20
2019-04-14T20:09:54.507Z,99110.54
2019-04-14T20:15:00.520Z,99120.38
2019-04-14T20:20:24.350Z,99123.84
2019-04-14T20:25:47.308Z,99120.91
2019-04-14T20:30:57.928Z,99127.45
2019-04-14T20:36:05.312Z,99127.65
2019-04-14T20:41:09.943Z,99125.35
2019-04-14T20:46:15.286Z,99127.05
2019-04-14T20:51:20.756Z,99129.36
2019-04-14T20:56:25.915Z,99124.08
2019-04-14T21:01:34.471Z,99128.36
2019-04-14T21:06:51.654Z,99136.62
2019-04-14T21:12:17.182Z,99138.09
2019-04-14T21:17:44.189Z,99139.63
2019-04-14T21:22:55.544Z,99138.61
2019-04-14T21:28:31.795Z,99140.86
2019-04-14T21:34:05.450Z,99148.66
2019-04-14T21:39:32.675Z,99153.02
2019-04-14T21:44:37.828Z,99144.70
2019-04-14T21:49:43.881Z,99151.27
2019-04-14T21:54:49.820Z,99159.54
2019-04-14T22:00:13.372Z,99157.31
2019-04-14T22:05:29.904Z,99165.17
2019-04-14T22:10:39.676Z,99180.11
2019-04-14T22:15:44.968Z,99176.01
2019-04-14T22:20:50.117Z,99182.23
2019-04-14T22:25:57.760Z,99176.01
2019-04-14T22:31:02.967Z,99181.60
2019-04-14T22:36:08.118Z,99182.80
2019-04-14T22:41:13.853Z,99182.76
2019-04-14T22:46:18.958Z,99189.46
2019-04-14T22:51:24.469Z,99191.14
2019-04-14T22:56:39.013Z,99187.05
2019-04-14T23:01:38.502Z,99188.20
2019-04-14T23:07:01.097Z,99195.95
2019-04-14T23:12:40.725Z,99189.23
2019-04-14T23:17:54.752Z,99190.91
2019-04-14T23:23:31.012Z,99197.66
2019-04-14T23:28:36.173Z,99191.38
2019-04-14T23:33:42.021Z,99193.61
2019-04-14T23:38:47.195Z,99195.70
2019-04-14T23:43:52.294Z,99197.37
2019-04-14T23:48:57.741Z,99197.21
2019-04-14T23:54:02.957Z,99202.30
2019-04-14T23:59:08.191Z,99210.16
